METAR AND TAF INFORMATION
METAR FOR KRDK
ADDS - METARS form results

(1525 UTC 17 February 2019)
Data provider http://aviationweather.gov/metar/data/
 
METAR text: KRDK 171515Z AUTO 31008KT 8SM -SN OVC015 M05/M05 A2982 RMK AO2
Conditions at: KRDK (RED OAK , IA, US) observed 1515 UTC 17 February 2019
Temperature: -5.0°C (23°F)
Dewpoint: -5.0°C (23°F) [RH = 100%]
Pressure (altimeter): 29.82 inches Hg (1009.9 mb)
Winds: from the NW (310 degrees) at 9 MPH (8 knots; 4.1 m/s)
Visibility: 8 miles (13 km)
Ceiling: 1500 feet AGL
Clouds: overcast cloud deck at 1500 feet AGL
Weather: -SN  (light snow)

METAR text: KRDK 171455Z AUTO 33007KT 6SM -SN BKN015 M05/M05 A2981 RMK AO2
Conditions at: KRDK (RED OAK , IA, US) observed 1455 UTC 17 February 2019
Temperature: -5.0°C (23°F)
Dewpoint: -5.0°C (23°F) [RH = 100%]
Pressure (altimeter): 29.81 inches Hg (1009.6 mb)
Winds: from the NNW (330 degrees) at 8 MPH (7 knots; 3.6 m/s)
Visibility: 6 miles (10 km)
Ceiling: 1500 feet AGL
Clouds: broken clouds at 1500 feet AGL
Weather: -SN  (light snow)

METAR text: KRDK 171435Z AUTO 31009KT 2 1/2SM -SN BKN016 BKN060 M05/M05 A2981 RMK AO2
Conditions at: KRDK (RED OAK , IA, US) observed 1435 UTC 17 February 2019
Temperature: -5.0°C (23°F)
Dewpoint: -5.0°C (23°F) [RH = 100%]
Pressure (altimeter): 29.81 inches Hg (1009.6 mb)
Winds: from the NW (310 degrees) at 10 MPH (9 knots; 4.6 m/s)
Visibility: 2.50 miles (4.02 km)
Ceiling: 1600 feet AGL
Clouds: broken clouds at 1600 feet AGL
broken clouds at 6000 feet AGL
Weather: -SN  (light snow)

 AIRPORT MAP

Esri Leaflet Quickstart
 RUNWAY INFORMATION
Runway 05 Runway length 4100 ft Runway width 75 ft
Runway elevation 1042 ft Runway displaced threshold 0 ft Runway heading 58
Runway 23 Runway length 4100 ft Runway width 75 ft
Runway elevation 1043 ft Runway displaced threshold 0 ft Runway heading 238
Runway 14 Runway length 2050 ft Runway width 210 ft
Runway elevation 1042 ft Runway displaced threshold 0 ft Runway heading 142
Runway 32 Runway length 2050 ft Runway width 210 ft
Runway elevation 1039 ft Runway displaced threshold 0 ft Runway heading 322
Runway 17 Runway length 2901 ft Runway width 60 ft
Runway elevation 1044 ft Runway displaced threshold 0 ft Runway heading 174
Runway 35 Runway length 2901 ft Runway width 60 ft
Runway elevation 1038 ft Runway displaced threshold 0 ft Runway heading 354

 AIRPORT FREQUENCIES
Type A/D Name OMAHA APP/ Frequency 124.5 MHZ
Type AWOS Name AWOS 3 Frequency 119.775 MHZ
Type UNIC Name CTAF/UNICO Frequency 122.8 MHZ

 AIRPORT NEAR NAVIGATION AIDS



Powered by Virtual Airlines Manager [v2.6.2]